sensor_id;sensor_type;location;lat;lon;timestamp;P1;durP1;ratioP1;P2;durP2;ratioP2
43118;SDS011;28729;49.838;8.650;2023-07-31T00:00:52;4.28;;;1.83;;
43118;SDS011;28729;49.838;8.650;2023-07-31T00:04:54;8.63;;;2.00;;
43118;SDS011;28729;49.838;8.650;2023-07-31T00:08:56;5.43;;;1.70;;
43118;SDS011;28729;49.838;8.650;2023-07-31T00:12:57;6.18;;;1.60;;
43118;SDS011;28729;49.838;8.650;2023-07-31T00:16:59;7.32;;;1.90;;
43118;SDS011;28729;49.838;8.650;2023-07-31T00:21:01;5.93;;;2.10;;
43118;SDS011;28729;49.838;8.650;2023-07-31T00:25:03;6.53;;;2.03;;
43118;SDS011;28729;49.838;8.650;2023-07-31T00:29:08;4.05;;;1.80;;
43118;SDS011;28729;49.838;8.650;2023-07-31T00:33:11;3.88;;;1.50;;
43118;SDS011;28729;49.838;8.650;2023-07-31T00:37:12;5.47;;;1.88;;
43118;SDS011;28729;49.838;8.650;2023-07-31T00:41:15;7.15;;;1.63;;
43118;SDS011;28729;49.838;8.650;2023-07-31T00:45:16;7.30;;;2.13;;
43118;SDS011;28729;49.838;8.650;2023-07-31T00:49:19;7.53;;;1.63;;
43118;SDS011;28729;49.838;8.650;2023-07-31T00:53:23;5.20;;;1.85;;
43118;SDS011;28729;49.838;8.650;2023-07-31T00:57:26;6.35;;;2.05;;
43118;SDS011;28729;49.838;8.650;2023-07-31T01:01:28;8.50;;;2.28;;
43118;SDS011;28729;49.838;8.650;2023-07-31T01:05:42;7.20;;;2.20;;
43118;SDS011;28729;49.838;8.650;2023-07-31T01:09:54;6.22;;;2.00;;
43118;SDS011;28729;49.838;8.650;2023-07-31T01:14:04;5.13;;;1.80;;
43118;SDS011;28729;49.838;8.650;2023-07-31T01:18:06;3.95;;;1.98;;
43118;SDS011;28729;49.838;8.650;2023-07-31T01:22:16;7.33;;;1.97;;
43118;SDS011;28729;49.838;8.650;2023-07-31T01:26:36;5.75;;;1.88;;
43118;SDS011;28729;49.838;8.650;2023-07-31T01:30:41;6.85;;;1.90;;
43118;SDS011;28729;49.838;8.650;2023-07-31T01:34:49;4.35;;;1.70;;
43118;SDS011;28729;49.838;8.650;2023-07-31T01:38:52;3.65;;;1.67;;
43118;SDS011;28729;49.838;8.650;2023-07-31T01:42:59;5.70;;;1.90;;
43118;SDS011;28729;49.838;8.650;2023-07-31T01:47:03;4.70;;;1.88;;
43118;SDS011;28729;49.838;8.650;2023-07-31T01:51:04;6.13;;;2.10;;
43118;SDS011;28729;49.838;8.650;2023-07-31T01:55:06;5.93;;;2.03;;
43118;SDS011;28729;49.838;8.650;2023-07-31T01:59:08;7.13;;;1.83;;
43118;SDS011;28729;49.838;8.650;2023-07-31T02:03:10;6.00;;;2.13;;
43118;SDS011;28729;49.838;8.650;2023-07-31T02:07:12;4.60;;;1.70;;
43118;SDS011;28729;49.838;8.650;2023-07-31T02:11:14;5.28;;;2.10;;
43118;SDS011;28729;49.838;8.650;2023-07-31T02:15:16;5.57;;;2.15;;
43118;SDS011;28729;49.838;8.650;2023-07-31T02:19:18;6.70;;;2.08;;
43118;SDS011;28729;49.838;8.650;2023-07-31T02:23:20;7.70;;;2.75;;
43118;SDS011;28729;49.838;8.650;2023-07-31T02:27:22;5.50;;;2.10;;
43118;SDS011;28729;49.838;8.650;2023-07-31T02:31:25;8.68;;;2.72;;
43118;SDS011;28729;49.838;8.650;2023-07-31T02:35:28;7.13;;;2.22;;
43118;SDS011;28729;49.838;8.650;2023-07-31T02:39:30;6.97;;;2.42;;
43118;SDS011;28729;49.838;8.650;2023-07-31T02:43:34;7.60;;;2.20;;
43118;SDS011;28729;49.838;8.650;2023-07-31T02:47:36;5.13;;;2.40;;
43118;SDS011;28729;49.838;8.650;2023-07-31T02:51:38;6.75;;;2.80;;
43118;SDS011;28729;49.838;8.650;2023-07-31T02:55:40;7.63;;;2.00;;
43118;SDS011;28729;49.838;8.650;2023-07-31T02:59:42;4.85;;;1.98;;
43118;SDS011;28729;49.838;8.650;2023-07-31T03:03:44;4.95;;;1.70;;
43118;SDS011;28729;49.838;8.650;2023-07-31T03:07:46;9.65;;;2.28;;
43118;SDS011;28729;49.838;8.650;2023-07-31T03:11:47;10.05;;;2.40;;
43118;SDS011;28729;49.838;8.650;2023-07-31T03:15:49;6.70;;;2.15;;
43118;SDS011;28729;49.838;8.650;2023-07-31T03:23:53;8.10;;;2.33;;
43118;SDS011;28729;49.838;8.650;2023-07-31T03:27:55;6.93;;;2.27;;
43118;SDS011;28729;49.838;8.650;2023-07-31T03:31:57;6.97;;;2.40;;
43118;SDS011;28729;49.838;8.650;2023-07-31T03:36:01;6.72;;;2.42;;
43118;SDS011;28729;49.838;8.650;2023-07-31T03:40:04;7.68;;;2.90;;
43118;SDS011;28729;49.838;8.650;2023-07-31T03:44:06;9.68;;;2.97;;
43118;SDS011;28729;49.838;8.650;2023-07-31T03:48:09;7.18;;;2.60;;
43118;SDS011;28729;49.838;8.650;2023-07-31T03:52:10;8.90;;;3.45;;
43118;SDS011;28729;49.838;8.650;2023-07-31T03:56:13;9.17;;;3.03;;
43118;SDS011;28729;49.838;8.650;2023-07-31T04:00:14;5.93;;;2.43;;
43118;SDS011;28729;49.838;8.650;2023-07-31T04:04:16;8.82;;;3.17;;
43118;SDS011;28729;49.838;8.650;2023-07-31T04:08:18;4.53;;;2.22;;
43118;SDS011;28729;49.838;8.650;2023-07-31T04:12:20;8.40;;;2.70;;
43118;SDS011;28729;49.838;8.650;2023-07-31T04:16:21;6.32;;;2.05;;
43118;SDS011;28729;49.838;8.650;2023-07-31T04:20:23;7.50;;;2.50;;
43118;SDS011;28729;49.838;8.650;2023-07-31T04:24:25;8.25;;;2.70;;
43118;SDS011;28729;49.838;8.650;2023-07-31T04:28:27;6.22;;;2.58;;
43118;SDS011;28729;49.838;8.650;2023-07-31T04:32:29;8.27;;;2.50;;
43118;SDS011;28729;49.838;8.650;2023-07-31T04:36:31;7.93;;;2.53;;
43118;SDS011;28729;49.838;8.650;2023-07-31T04:40:33;5.10;;;2.35;;
43118;SDS011;28729;49.838;8.650;2023-07-31T04:44:35;7.33;;;2.40;;
43118;SDS011;28729;49.838;8.650;2023-07-31T04:48:36;7.63;;;2.30;;
43118;SDS011;28729;49.838;8.650;2023-07-31T04:52:38;8.32;;;2.15;;
43118;SDS011;28729;49.838;8.650;2023-07-31T04:56:41;5.32;;;2.40;;
43118;SDS011;28729;49.838;8.650;2023-07-31T05:00:42;6.57;;;3.75;;
43118;SDS011;28729;49.838;8.650;2023-07-31T05:04:44;6.88;;;2.22;;
43118;SDS011;28729;49.838;8.650;2023-07-31T05:08:46;11.38;;;2.30;;
43118;SDS011;28729;49.838;8.650;2023-07-31T05:12:48;4.00;;;2.40;;
43118;SDS011;28729;49.838;8.650;2023-07-31T05:16:50;6.57;;;2.22;;
43118;SDS011;28729;49.838;8.650;2023-07-31T05:20:52;6.35;;;1.80;;
43118;SDS011;28729;49.838;8.650;2023-07-31T05:24:53;7.22;;;2.20;;
43118;SDS011;28729;49.838;8.650;2023-07-31T05:28:55;5.13;;;2.10;;
43118;SDS011;28729;49.838;8.650;2023-07-31T05:32:57;9.55;;;2.45;;
43118;SDS011;28729;49.838;8.650;2023-07-31T05:36:59;6.57;;;2.92;;
43118;SDS011;28729;49.838;8.650;2023-07-31T05:41:01;6.15;;;2.60;;
43118;SDS011;28729;49.838;8.650;2023-07-31T05:45:03;8.02;;;3.38;;
43118;SDS011;28729;49.838;8.650;2023-07-31T05:49:06;10.90;;;2.35;;
43118;SDS011;28729;49.838;8.650;2023-07-31T05:53:08;6.13;;;2.45;;
43118;SDS011;28729;49.838;8.650;2023-07-31T05:57:11;8.88;;;2.60;;
43118;SDS011;28729;49.838;8.650;2023-07-31T06:01:13;10.23;;;2.87;;
43118;SDS011;28729;49.838;8.650;2023-07-31T06:05:17;8.57;;;2.30;;
43118;SDS011;28729;49.838;8.650;2023-07-31T06:09:18;7.53;;;2.42;;
43118;SDS011;28729;49.838;8.650;2023-07-31T06:13:21;6.72;;;2.65;;
43118;SDS011;28729;49.838;8.650;2023-07-31T06:17:23;6.30;;;2.40;;
43118;SDS011;28729;49.838;8.650;2023-07-31T06:21:25;5.20;;;2.03;;
43118;SDS011;28729;49.838;8.650;2023-07-31T06:25:27;10.73;;;3.08;;
43118;SDS011;28729;49.838;8.650;2023-07-31T06:29:29;6.60;;;2.43;;
43118;SDS011;28729;49.838;8.650;2023-07-31T06:33:32;8.43;;;2.92;;
43118;SDS011;28729;49.838;8.650;2023-07-31T06:37:34;5.35;;;2.45;;
43118;SDS011;28729;49.838;8.650;2023-07-31T06:41:38;9.55;;;2.50;;
43118;SDS011;28729;49.838;8.650;2023-07-31T06:45:44;9.35;;;2.40;;
43118;SDS011;28729;49.838;8.650;2023-07-31T06:49:47;12.35;;;2.83;;
43118;SDS011;28729;49.838;8.650;2023-07-31T06:53:49;5.38;;;2.70;;
43118;SDS011;28729;49.838;8.650;2023-07-31T06:57:51;6.15;;;2.88;;
43118;SDS011;28729;49.838;8.650;2023-07-31T07:01:54;6.75;;;2.28;;
43118;SDS011;28729;49.838;8.650;2023-07-31T07:05:59;6.82;;;2.10;;
43118;SDS011;28729;49.838;8.650;2023-07-31T07:10:01;7.67;;;2.43;;
43118;SDS011;28729;49.838;8.650;2023-07-31T07:14:03;6.35;;;2.70;;
43118;SDS011;28729;49.838;8.650;2023-07-31T07:18:05;5.15;;;2.42;;
43118;SDS011;28729;49.838;8.650;2023-07-31T07:22:07;6.47;;;2.83;;
43118;SDS011;28729;49.838;8.650;2023-07-31T07:26:09;8.00;;;2.70;;
43118;SDS011;28729;49.838;8.650;2023-07-31T07:30:11;5.30;;;2.65;;
43118;SDS011;28729;49.838;8.650;2023-07-31T07:34:13;18.57;;;3.53;;
43118;SDS011;28729;49.838;8.650;2023-07-31T07:38:15;10.20;;;2.47;;
43118;SDS011;28729;49.838;8.650;2023-07-31T07:42:17;8.30;;;2.63;;
43118;SDS011;28729;49.838;8.650;2023-07-31T07:46:19;7.80;;;2.50;;
43118;SDS011;28729;49.838;8.650;2023-07-31T07:50:21;8.73;;;2.20;;
43118;SDS011;28729;49.838;8.650;2023-07-31T07:54:23;6.07;;;2.37;;
43118;SDS011;28729;49.838;8.650;2023-07-31T07:58:25;7.97;;;3.17;;
43118;SDS011;28729;49.838;8.650;2023-07-31T08:02:27;7.97;;;2.75;;
43118;SDS011;28729;49.838;8.650;2023-07-31T08:06:29;7.73;;;2.63;;
43118;SDS011;28729;49.838;8.650;2023-07-31T08:10:31;7.47;;;2.55;;
43118;SDS011;28729;49.838;8.650;2023-07-31T08:14:33;7.03;;;2.20;;
43118;SDS011;28729;49.838;8.650;2023-07-31T08:18:35;10.50;;;2.73;;
43118;SDS011;28729;49.838;8.650;2023-07-31T08:22:37;6.23;;;2.47;;
43118;SDS011;28729;49.838;8.650;2023-07-31T08:26:39;9.67;;;2.97;;
43118;SDS011;28729;49.838;8.650;2023-07-31T08:30:41;8.50;;;2.80;;
43118;SDS011;28729;49.838;8.650;2023-07-31T08:34:43;8.50;;;2.45;;
43118;SDS011;28729;49.838;8.650;2023-07-31T08:38:45;9.55;;;2.67;;
43118;SDS011;28729;49.838;8.650;2023-07-31T08:42:48;3.93;;;2.23;;
43118;SDS011;28729;49.838;8.650;2023-07-31T08:46:51;7.30;;;2.40;;
43118;SDS011;28729;49.838;8.650;2023-07-31T08:50:54;7.05;;;2.15;;
43118;SDS011;28729;49.838;8.650;2023-07-31T08:54:55;4.80;;;2.00;;
43118;SDS011;28729;49.838;8.650;2023-07-31T08:58:58;6.13;;;2.80;;
43118;SDS011;28729;49.838;8.650;2023-07-31T09:03:07;7.35;;;2.20;;
43118;SDS011;28729;49.838;8.650;2023-07-31T09:07:11;8.65;;;3.00;;
43118;SDS011;28729;49.838;8.650;2023-07-31T09:11:15;7.15;;;2.97;;
43118;SDS011;28729;49.838;8.650;2023-07-31T09:15:18;7.85;;;2.58;;
43118;SDS011;28729;49.838;8.650;2023-07-31T09:19:37;7.95;;;2.55;;
43118;SDS011;28729;49.838;8.650;2023-07-31T09:23:39;6.97;;;2.03;;
43118;SDS011;28729;49.838;8.650;2023-07-31T09:27:46;6.32;;;2.45;;
43118;SDS011;28729;49.838;8.650;2023-07-31T09:31:52;8.52;;;3.00;;
43118;SDS011;28729;49.838;8.650;2023-07-31T09:35:55;8.32;;;3.17;;
43118;SDS011;28729;49.838;8.650;2023-07-31T09:40:00;4.47;;;2.25;;
43118;SDS011;28729;49.838;8.650;2023-07-31T09:44:02;6.87;;;2.50;;
43118;SDS011;28729;49.838;8.650;2023-07-31T09:48:07;5.87;;;2.23;;
43118;SDS011;28729;49.838;8.650;2023-07-31T09:52:13;5.88;;;2.55;;
43118;SDS011;28729;49.838;8.650;2023-07-31T09:56:15;10.30;;;2.95;;
43118;SDS011;28729;49.838;8.650;2023-07-31T10:00:19;9.55;;;2.70;;
43118;SDS011;28729;49.838;8.650;2023-07-31T10:04:25;5.13;;;2.58;;
43118;SDS011;28729;49.838;8.650;2023-07-31T10:08:30;8.50;;;2.55;;
43118;SDS011;28729;49.838;8.650;2023-07-31T10:12:38;8.20;;;2.83;;
43118;SDS011;28729;49.838;8.650;2023-07-31T10:16:40;9.10;;;2.45;;
43118;SDS011;28729;49.838;8.650;2023-07-31T10:20:43;5.20;;;2.63;;
43118;SDS011;28729;49.838;8.650;2023-07-31T10:24:45;6.55;;;2.50;;
43118;SDS011;28729;49.838;8.650;2023-07-31T10:28:48;9.38;;;2.40;;
43118;SDS011;28729;49.838;8.650;2023-07-31T10:32:52;5.80;;;2.53;;
43118;SDS011;28729;49.838;8.650;2023-07-31T10:41:28;4.93;;;2.42;;
43118;SDS011;28729;49.838;8.650;2023-07-31T10:45:33;7.65;;;2.47;;
43118;SDS011;28729;49.838;8.650;2023-07-31T10:49:37;9.73;;;2.97;;
43118;SDS011;28729;49.838;8.650;2023-07-31T10:53:40;12.07;;;3.30;;
43118;SDS011;28729;49.838;8.650;2023-07-31T10:57:47;6.22;;;2.45;;
43118;SDS011;28729;49.838;8.650;2023-07-31T11:01:53;7.88;;;3.08;;
43118;SDS011;28729;49.838;8.650;2023-07-31T11:10:02;6.35;;;3.03;;
43118;SDS011;28729;49.838;8.650;2023-07-31T11:14:04;9.52;;;2.85;;
43118;SDS011;28729;49.838;8.650;2023-07-31T11:18:05;10.33;;;3.33;;
43118;SDS011;28729;49.838;8.650;2023-07-31T11:22:09;8.70;;;2.90;;
43118;SDS011;28729;49.838;8.650;2023-07-31T11:30:13;7.68;;;3.35;;
43118;SDS011;28729;49.838;8.650;2023-07-31T11:34:15;7.43;;;2.77;;
43118;SDS011;28729;49.838;8.650;2023-07-31T11:38:25;7.25;;;3.20;;
43118;SDS011;28729;49.838;8.650;2023-07-31T11:42:32;9.25;;;2.97;;
43118;SDS011;28729;49.838;8.650;2023-07-31T11:46:35;7.88;;;3.30;;
43118;SDS011;28729;49.838;8.650;2023-07-31T11:50:37;10.15;;;3.00;;
43118;SDS011;28729;49.838;8.650;2023-07-31T11:54:39;6.83;;;2.63;;
43118;SDS011;28729;49.838;8.650;2023-07-31T11:58:42;8.23;;;3.03;;
43118;SDS011;28729;49.838;8.650;2023-07-31T12:02:47;8.13;;;2.85;;
43118;SDS011;28729;49.838;8.650;2023-07-31T12:14:54;5.35;;;2.80;;
43118;SDS011;28729;49.838;8.650;2023-07-31T12:18:56;6.60;;;2.90;;
43118;SDS011;28729;49.838;8.650;2023-07-31T12:22:58;7.47;;;3.03;;
43118;SDS011;28729;49.838;8.650;2023-07-31T12:27:00;8.43;;;2.70;;
43118;SDS011;28729;49.838;8.650;2023-07-31T12:31:02;4.80;;;2.55;;
43118;SDS011;28729;49.838;8.650;2023-07-31T12:35:06;9.88;;;3.17;;
43118;SDS011;28729;49.838;8.650;2023-07-31T12:39:08;10.82;;;3.22;;
43118;SDS011;28729;49.838;8.650;2023-07-31T12:43:09;8.32;;;3.00;;
43118;SDS011;28729;49.838;8.650;2023-07-31T12:47:11;7.43;;;2.87;;
43118;SDS011;28729;49.838;8.650;2023-07-31T12:51:13;9.30;;;3.10;;
43118;SDS011;28729;49.838;8.650;2023-07-31T12:55:15;4.88;;;2.45;;
43118;SDS011;28729;49.838;8.650;2023-07-31T12:59:17;11.65;;;2.97;;
43118;SDS011;28729;49.838;8.650;2023-07-31T13:03:19;8.47;;;2.63;;
43118;SDS011;28729;49.838;8.650;2023-07-31T13:07:21;5.90;;;2.73;;
43118;SDS011;28729;49.838;8.650;2023-07-31T13:11:23;10.30;;;2.67;;
43118;SDS011;28729;49.838;8.650;2023-07-31T13:15:25;10.30;;;3.47;;
43118;SDS011;28729;49.838;8.650;2023-07-31T13:19:27;11.55;;;3.00;;
43118;SDS011;28729;49.838;8.650;2023-07-31T13:23:29;8.37;;;2.73;;
43118;SDS011;28729;49.838;8.650;2023-07-31T13:27:31;6.85;;;2.88;;
43118;SDS011;28729;49.838;8.650;2023-07-31T13:31:33;7.63;;;2.40;;
43118;SDS011;28729;49.838;8.650;2023-07-31T13:35:35;5.18;;;2.53;;
43118;SDS011;28729;49.838;8.650;2023-07-31T13:39:37;6.57;;;2.43;;
43118;SDS011;28729;49.838;8.650;2023-07-31T13:43:38;5.05;;;2.47;;
43118;SDS011;28729;49.838;8.650;2023-07-31T13:47:40;4.37;;;2.33;;
43118;SDS011;28729;49.838;8.650;2023-07-31T13:51:42;6.80;;;2.60;;
43118;SDS011;28729;49.838;8.650;2023-07-31T13:55:44;6.97;;;2.25;;
43118;SDS011;28729;49.838;8.650;2023-07-31T13:59:47;7.78;;;2.50;;
43118;SDS011;28729;49.838;8.650;2023-07-31T14:03:49;7.73;;;2.63;;
43118;SDS011;28729;49.838;8.650;2023-07-31T14:07:51;6.63;;;2.43;;
43118;SDS011;28729;49.838;8.650;2023-07-31T14:11:53;6.90;;;3.33;;
43118;SDS011;28729;49.838;8.650;2023-07-31T14:15:54;6.17;;;2.47;;
43118;SDS011;28729;49.838;8.650;2023-07-31T14:19:56;5.47;;;2.80;;
43118;SDS011;28729;49.838;8.650;2023-07-31T14:23:58;7.25;;;2.70;;
43118;SDS011;28729;49.838;8.650;2023-07-31T14:28:00;6.83;;;2.43;;
43118;SDS011;28729;49.838;8.650;2023-07-31T14:32:02;5.55;;;2.85;;
43118;SDS011;28729;49.838;8.650;2023-07-31T14:36:04;8.70;;;2.93;;
43118;SDS011;28729;49.838;8.650;2023-07-31T14:40:15;7.00;;;2.53;;
43118;SDS011;28729;49.838;8.650;2023-07-31T14:44:17;10.30;;;2.73;;
43118;SDS011;28729;49.838;8.650;2023-07-31T14:48:18;8.50;;;2.40;;
43118;SDS011;28729;49.838;8.650;2023-07-31T14:52:20;5.47;;;2.40;;
43118;SDS011;28729;49.838;8.650;2023-07-31T14:56:22;5.13;;;2.47;;
43118;SDS011;28729;49.838;8.650;2023-07-31T15:00:24;8.30;;;2.37;;
43118;SDS011;28729;49.838;8.650;2023-07-31T15:04:26;7.38;;;2.60;;
43118;SDS011;28729;49.838;8.650;2023-07-31T15:08:27;6.10;;;2.40;;
43118;SDS011;28729;49.838;8.650;2023-07-31T15:12:29;6.33;;;2.37;;
43118;SDS011;28729;49.838;8.650;2023-07-31T15:16:31;9.10;;;2.33;;
43118;SDS011;28729;49.838;8.650;2023-07-31T15:20:33;6.00;;;2.90;;
43118;SDS011;28729;49.838;8.650;2023-07-31T15:24:35;8.20;;;2.73;;
43118;SDS011;28729;49.838;8.650;2023-07-31T15:28:37;4.33;;;2.40;;
43118;SDS011;28729;49.838;8.650;2023-07-31T15:32:40;8.40;;;3.47;;
43118;SDS011;28729;49.838;8.650;2023-07-31T15:36:42;6.63;;;2.57;;
43118;SDS011;28729;49.838;8.650;2023-07-31T15:40:44;8.93;;;2.38;;
43118;SDS011;28729;49.838;8.650;2023-07-31T15:44:46;6.53;;;2.33;;
43118;SDS011;28729;49.838;8.650;2023-07-31T15:48:49;7.47;;;2.20;;
43118;SDS011;28729;49.838;8.650;2023-07-31T15:52:50;4.40;;;1.80;;
43118;SDS011;28729;49.838;8.650;2023-07-31T15:56:52;4.83;;;1.83;;
43118;SDS011;28729;49.838;8.650;2023-07-31T16:00:55;6.30;;;2.20;;
43118;SDS011;28729;49.838;8.650;2023-07-31T16:04:56;6.70;;;2.35;;
43118;SDS011;28729;49.838;8.650;2023-07-31T16:08:59;7.35;;;2.20;;
43118;SDS011;28729;49.838;8.650;2023-07-31T16:13:00;4.23;;;2.00;;
43118;SDS011;28729;49.838;8.650;2023-07-31T16:17:02;6.10;;;2.00;;
43118;SDS011;28729;49.838;8.650;2023-07-31T16:21:07;5.65;;;2.55;;
43118;SDS011;28729;49.838;8.650;2023-07-31T16:25:09;4.73;;;2.60;;
43118;SDS011;28729;49.838;8.650;2023-07-31T16:29:11;6.55;;;2.30;;
43118;SDS011;28729;49.838;8.650;2023-07-31T16:33:13;7.10;;;2.47;;
43118;SDS011;28729;49.838;8.650;2023-07-31T16:37:17;7.82;;;2.90;;
43118;SDS011;28729;49.838;8.650;2023-07-31T16:46:08;5.03;;;2.35;;
43118;SDS011;28729;49.838;8.650;2023-07-31T16:50:11;6.57;;;3.15;;
43118;SDS011;28729;49.838;8.650;2023-07-31T16:54:13;7.93;;;2.97;;
43118;SDS011;28729;49.838;8.650;2023-07-31T16:58:15;12.88;;;3.47;;
43118;SDS011;28729;49.838;8.650;2023-07-31T17:02:17;7.43;;;3.65;;
43118;SDS011;28729;49.838;8.650;2023-07-31T17:06:20;7.05;;;3.15;;
43118;SDS011;28729;49.838;8.650;2023-07-31T17:10:23;8.90;;;3.05;;
43118;SDS011;28729;49.838;8.650;2023-07-31T17:14:25;8.68;;;3.22;;
43118;SDS011;28729;49.838;8.650;2023-07-31T17:18:27;8.20;;;3.50;;
43118;SDS011;28729;49.838;8.650;2023-07-31T17:22:30;9.63;;;3.70;;
43118;SDS011;28729;49.838;8.650;2023-07-31T17:26:49;9.43;;;3.67;;
43118;SDS011;28729;49.838;8.650;2023-07-31T17:30:50;8.40;;;3.60;;
43118;SDS011;28729;49.838;8.650;2023-07-31T17:34:52;9.77;;;3.90;;
43118;SDS011;28729;49.838;8.650;2023-07-31T17:38:54;8.65;;;3.90;;
43118;SDS011;28729;49.838;8.650;2023-07-31T17:42:56;9.95;;;3.72;;
43118;SDS011;28729;49.838;8.650;2023-07-31T17:46:57;9.57;;;4.47;;
43118;SDS011;28729;49.838;8.650;2023-07-31T17:51:00;13.32;;;3.40;;
43118;SDS011;28729;49.838;8.650;2023-07-31T17:55:02;10.32;;;4.55;;
43118;SDS011;28729;49.838;8.650;2023-07-31T17:59:04;8.53;;;3.57;;
43118;SDS011;28729;49.838;8.650;2023-07-31T18:03:07;10.40;;;4.13;;
43118;SDS011;28729;49.838;8.650;2023-07-31T18:07:10;14.20;;;4.68;;
43118;SDS011;28729;49.838;8.650;2023-07-31T18:11:12;11.48;;;4.35;;
43118;SDS011;28729;49.838;8.650;2023-07-31T18:15:15;9.70;;;4.43;;
43118;SDS011;28729;49.838;8.650;2023-07-31T18:19:17;9.43;;;4.57;;
43118;SDS011;28729;49.838;8.650;2023-07-31T18:23:20;10.67;;;3.97;;
43118;SDS011;28729;49.838;8.650;2023-07-31T18:27:21;9.02;;;4.40;;
43118;SDS011;28729;49.838;8.650;2023-07-31T18:31:25;11.98;;;5.05;;
43118;SDS011;28729;49.838;8.650;2023-07-31T18:35:27;8.90;;;4.27;;
43118;SDS011;28729;49.838;8.650;2023-07-31T18:39:29;8.73;;;4.28;;
43118;SDS011;28729;49.838;8.650;2023-07-31T18:43:32;10.30;;;4.07;;
43118;SDS011;28729;49.838;8.650;2023-07-31T18:47:34;6.97;;;3.90;;
43118;SDS011;28729;49.838;8.650;2023-07-31T18:51:36;11.73;;;4.63;;
43118;SDS011;28729;49.838;8.650;2023-07-31T18:55:43;5.72;;;3.28;;
43118;SDS011;28729;49.838;8.650;2023-07-31T18:59:45;10.48;;;4.43;;
43118;SDS011;28729;49.838;8.650;2023-07-31T19:08:12;5.47;;;3.03;;
43118;SDS011;28729;49.838;8.650;2023-07-31T19:12:28;6.85;;;3.33;;
43118;SDS011;28729;49.838;8.650;2023-07-31T19:20:42;6.57;;;2.90;;
43118;SDS011;28729;49.838;8.650;2023-07-31T19:24:44;5.35;;;2.47;;
43118;SDS011;28729;49.838;8.650;2023-07-31T19:28:49;4.72;;;2.63;;
43118;SDS011;28729;49.838;8.650;2023-07-31T19:32:51;8.80;;;3.10;;
43118;SDS011;28729;49.838;8.650;2023-07-31T19:36:53;4.95;;;2.70;;
43118;SDS011;28729;49.838;8.650;2023-07-31T19:40:57;5.55;;;2.75;;
43118;SDS011;28729;49.838;8.650;2023-07-31T19:45:02;4.95;;;2.80;;
43118;SDS011;28729;49.838;8.650;2023-07-31T19:49:05;6.70;;;2.97;;
43118;SDS011;28729;49.838;8.650;2023-07-31T19:53:07;5.00;;;2.57;;
43118;SDS011;28729;49.838;8.650;2023-07-31T19:57:08;8.13;;;3.03;;
43118;SDS011;28729;49.838;8.650;2023-07-31T20:01:10;5.13;;;2.75;;
43118;SDS011;28729;49.838;8.650;2023-07-31T20:05:12;7.95;;;2.97;;
43118;SDS011;28729;49.838;8.650;2023-07-31T20:09:14;6.23;;;3.43;;
43118;SDS011;28729;49.838;8.650;2023-07-31T20:13:16;5.50;;;2.70;;
43118;SDS011;28729;49.838;8.650;2023-07-31T20:17:19;6.95;;;2.95;;
43118;SDS011;28729;49.838;8.650;2023-07-31T20:21:21;4.33;;;2.50;;
43118;SDS011;28729;49.838;8.650;2023-07-31T20:25:22;5.78;;;2.97;;
43118;SDS011;28729;49.838;8.650;2023-07-31T20:29:24;7.60;;;3.17;;
43118;SDS011;28729;49.838;8.650;2023-07-31T20:33:26;6.88;;;2.95;;
43118;SDS011;28729;49.838;8.650;2023-07-31T20:37:28;7.03;;;3.38;;
43118;SDS011;28729;49.838;8.650;2023-07-31T20:41:30;6.47;;;3.55;;
43118;SDS011;28729;49.838;8.650;2023-07-31T20:45:33;9.45;;;3.63;;
43118;SDS011;28729;49.838;8.650;2023-07-31T20:49:39;9.57;;;3.72;;
43118;SDS011;28729;49.838;8.650;2023-07-31T20:53:41;9.00;;;4.10;;
43118;SDS011;28729;49.838;8.650;2023-07-31T20:57:43;6.82;;;3.60;;
43118;SDS011;28729;49.838;8.650;2023-07-31T21:01:45;10.07;;;3.95;;
43118;SDS011;28729;49.838;8.650;2023-07-31T21:05:50;7.00;;;3.80;;
43118;SDS011;28729;49.838;8.650;2023-07-31T21:09:53;11.18;;;4.47;;
43118;SDS011;28729;49.838;8.650;2023-07-31T21:13:55;8.30;;;3.83;;
43118;SDS011;28729;49.838;8.650;2023-07-31T21:18:02;6.50;;;3.80;;
43118;SDS011;28729;49.838;8.650;2023-07-31T21:22:04;9.13;;;4.38;;
43118;SDS011;28729;49.838;8.650;2023-07-31T21:26:07;8.07;;;4.38;;
43118;SDS011;28729;49.838;8.650;2023-07-31T21:30:09;10.82;;;4.47;;
43118;SDS011;28729;49.838;8.650;2023-07-31T21:34:11;9.13;;;4.13;;
43118;SDS011;28729;49.838;8.650;2023-07-31T21:38:12;9.10;;;5.07;;
43118;SDS011;28729;49.838;8.650;2023-07-31T21:42:15;12.38;;;4.07;;
43118;SDS011;28729;49.838;8.650;2023-07-31T21:46:17;10.60;;;4.20;;
43118;SDS011;28729;49.838;8.650;2023-07-31T21:50:21;9.77;;;4.25;;
43118;SDS011;28729;49.838;8.650;2023-07-31T21:54:23;8.70;;;4.33;;
43118;SDS011;28729;49.838;8.650;2023-07-31T21:58:25;7.85;;;4.05;;
43118;SDS011;28729;49.838;8.650;2023-07-31T22:02:27;15.98;;;4.50;;
43118;SDS011;28729;49.838;8.650;2023-07-31T22:06:29;10.03;;;4.67;;
43118;SDS011;28729;49.838;8.650;2023-07-31T22:10:31;10.03;;;4.47;;
43118;SDS011;28729;49.838;8.650;2023-07-31T22:14:33;10.13;;;4.85;;
43118;SDS011;28729;49.838;8.650;2023-07-31T22:18:35;10.73;;;4.45;;
43118;SDS011;28729;49.838;8.650;2023-07-31T22:22:37;12.88;;;5.78;;
43118;SDS011;28729;49.838;8.650;2023-07-31T22:26:38;11.10;;;4.68;;
43118;SDS011;28729;49.838;8.650;2023-07-31T22:30:41;9.52;;;4.55;;
43118;SDS011;28729;49.838;8.650;2023-07-31T22:34:44;10.97;;;5.10;;
43118;SDS011;28729;49.838;8.650;2023-07-31T22:38:46;10.35;;;5.03;;
43118;SDS011;28729;49.838;8.650;2023-07-31T22:42:48;8.85;;;4.28;;
43118;SDS011;28729;49.838;8.650;2023-07-31T22:46:50;8.18;;;4.65;;
43118;SDS011;28729;49.838;8.650;2023-07-31T22:50:52;9.82;;;4.57;;
43118;SDS011;28729;49.838;8.650;2023-07-31T22:54:54;11.63;;;4.90;;
43118;SDS011;28729;49.838;8.650;2023-07-31T22:58:55;12.52;;;4.60;;
43118;SDS011;28729;49.838;8.650;2023-07-31T23:02:58;14.33;;;4.87;;
43118;SDS011;28729;49.838;8.650;2023-07-31T23:07:00;7.90;;;4.60;;
43118;SDS011;28729;49.838;8.650;2023-07-31T23:11:02;15.27;;;5.03;;
43118;SDS011;28729;49.838;8.650;2023-07-31T23:15:04;12.77;;;4.80;;
43118;SDS011;28729;49.838;8.650;2023-07-31T23:19:06;10.43;;;5.20;;
43118;SDS011;28729;49.838;8.650;2023-07-31T23:23:08;11.65;;;4.75;;
43118;SDS011;28729;49.838;8.650;2023-07-31T23:27:15;13.65;;;4.60;;
43118;SDS011;28729;49.838;8.650;2023-07-31T23:31:17;10.30;;;4.57;;
43118;SDS011;28729;49.838;8.650;2023-07-31T23:35:19;10.35;;;4.53;;
43118;SDS011;28729;49.838;8.650;2023-07-31T23:39:21;10.02;;;4.13;;
43118;SDS011;28729;49.838;8.650;2023-07-31T23:43:23;9.07;;;4.00;;
43118;SDS011;28729;49.838;8.650;2023-07-31T23:47:25;11.48;;;4.32;;
43118;SDS011;28729;49.838;8.650;2023-07-31T23:51:27;14.90;;;5.15;;
43118;SDS011;28729;49.838;8.650;2023-07-31T23:55:29;10.60;;;4.95;;
